sensor_id;sensor_type;location;lat;lon;timestamp;P1;durP1;ratioP1;P2;durP2;ratioP2
9940;SDS011;5009;50.656;7.188;2022-12-16T05:02:52;18.57;;;11.10;;
9940;SDS011;5009;50.656;7.188;2022-12-16T05:07:07;15.33;;;10.30;;
9940;SDS011;5009;50.656;7.188;2022-12-16T05:16:54;17.33;;;10.70;;
9940;SDS011;5009;50.656;7.188;2022-12-16T05:22:43;19.57;;;11.43;;
9940;SDS011;5009;50.656;7.188;2022-12-16T05:26:21;18.23;;;11.20;;
9940;SDS011;5009;50.656;7.188;2022-12-16T05:29:03;20.80;;;12.50;;
9940;SDS011;5009;50.656;7.188;2022-12-16T05:31:39;16.57;;;11.13;;
9940;SDS011;5009;50.656;7.188;2022-12-16T05:34:19;17.13;;;11.77;;
9940;SDS011;5009;50.656;7.188;2022-12-16T05:37:19;15.80;;;11.03;;
9940;SDS011;5009;50.656;7.188;2022-12-16T05:40:03;14.03;;;10.10;;
9940;SDS011;5009;50.656;7.188;2022-12-16T05:47:25;18.10;;;11.03;;
9940;SDS011;5009;50.656;7.188;2022-12-16T05:54:04;17.80;;;11.10;;
9940;SDS011;5009;50.656;7.188;2022-12-16T06:05:48;17.73;;;11.50;;
9940;SDS011;5009;50.656;7.188;2022-12-16T06:08:48;19.13;;;12.03;;
9940;SDS011;5009;50.656;7.188;2022-12-16T06:16:44;15.97;;;10.77;;
9940;SDS011;5009;50.656;7.188;2022-12-16T06:22:49;18.93;;;11.53;;
9940;SDS011;5009;50.656;7.188;2022-12-16T06:27:29;18.57;;;11.13;;
9940;SDS011;5009;50.656;7.188;2022-12-16T06:36:47;18.30;;;12.33;;
9940;SDS011;5009;50.656;7.188;2022-12-16T06:42:53;18.03;;;12.17;;
9940;SDS011;5009;50.656;7.188;2022-12-16T06:48:39;20.97;;;12.00;;
9940;SDS011;5009;50.656;7.188;2022-12-16T06:51:24;17.93;;;11.80;;
9940;SDS011;5009;50.656;7.188;2022-12-16T06:54:10;18.13;;;12.57;;
9940;SDS011;5009;50.656;7.188;2022-12-16T06:58:51;19.43;;;12.23;;
9940;SDS011;5009;50.656;7.188;2022-12-16T07:02:50;21.00;;;13.10;;
9940;SDS011;5009;50.656;7.188;2022-12-16T07:06:32;17.90;;;12.23;;
9940;SDS011;5009;50.656;7.188;2022-12-16T07:09:16;19.27;;;12.17;;
9940;SDS011;5009;50.656;7.188;2022-12-16T07:13:40;20.23;;;12.90;;
9940;SDS011;5009;50.656;7.188;2022-12-16T07:16:24;19.43;;;12.70;;
9940;SDS011;5009;50.656;7.188;2022-12-16T07:23:47;20.93;;;13.03;;
9940;SDS011;5009;50.656;7.188;2022-12-16T07:28:10;17.57;;;11.30;;
9940;SDS011;5009;50.656;7.188;2022-12-16T07:32:43;17.63;;;11.33;;
9940;SDS011;5009;50.656;7.188;2022-12-16T07:35:27;18.83;;;11.80;;
9940;SDS011;5009;50.656;7.188;2022-12-16T07:38:09;20.13;;;12.67;;
9940;SDS011;5009;50.656;7.188;2022-12-16T07:42:46;20.67;;;11.57;;
9940;SDS011;5009;50.656;7.188;2022-12-16T07:45:30;18.90;;;11.53;;
9940;SDS011;5009;50.656;7.188;2022-12-16T07:48:15;17.70;;;12.77;;
9940;SDS011;5009;50.656;7.188;2022-12-16T07:52:44;19.03;;;12.07;;
9940;SDS011;5009;50.656;7.188;2022-12-16T07:55:28;18.30;;;11.83;;
9940;SDS011;5009;50.656;7.188;2022-12-16T07:58:12;18.73;;;11.60;;
9940;SDS011;5009;50.656;7.188;2022-12-16T08:02:43;19.67;;;12.43;;
9940;SDS011;5009;50.656;7.188;2022-12-16T08:07:08;17.77;;;12.30;;
9940;SDS011;5009;50.656;7.188;2022-12-16T08:09:53;19.30;;;11.27;;
9940;SDS011;5009;50.656;7.188;2022-12-16T08:12:37;20.53;;;13.13;;
9940;SDS011;5009;50.656;7.188;2022-12-16T08:15:21;20.73;;;13.03;;
9940;SDS011;5009;50.656;7.188;2022-12-16T08:26:26;19.03;;;12.67;;
9940;SDS011;5009;50.656;7.188;2022-12-16T08:35:51;20.37;;;12.27;;
9940;SDS011;5009;50.656;7.188;2022-12-16T08:59:12;20.13;;;13.90;;
9940;SDS011;5009;50.656;7.188;2022-12-16T09:02:55;24.17;;;15.07;;
9940;SDS011;5009;50.656;7.188;2022-12-16T09:06:38;20.70;;;13.53;;
9940;SDS011;5009;50.656;7.188;2022-12-16T09:09:22;21.37;;;13.23;;
9940;SDS011;5009;50.656;7.188;2022-12-16T09:15:52;21.83;;;14.07;;
9940;SDS011;5009;50.656;7.188;2022-12-16T09:25:10;26.50;;;16.40;;
9940;SDS011;5009;50.656;7.188;2022-12-16T09:29:33;24.63;;;15.07;;
9940;SDS011;5009;50.656;7.188;2022-12-16T09:34:55;27.40;;;16.47;;
9940;SDS011;5009;50.656;7.188;2022-12-16T09:37:44;25.00;;;15.73;;
9940;SDS011;5009;50.656;7.188;2022-12-16T09:42:53;21.07;;;15.23;;
9940;SDS011;5009;50.656;7.188;2022-12-16T09:54:03;29.00;;;17.20;;
9940;SDS011;5009;50.656;7.188;2022-12-16T10:04:12;24.70;;;15.17;;
9940;SDS011;5009;50.656;7.188;2022-12-16T10:07:11;25.30;;;15.97;;
9940;SDS011;5009;50.656;7.188;2022-12-16T10:12:55;26.87;;;15.93;;
9940;SDS011;5009;50.656;7.188;2022-12-16T10:36:16;28.63;;;16.30;;
9940;SDS011;5009;50.656;7.188;2022-12-16T10:40:53;26.13;;;17.03;;
9940;SDS011;5009;50.656;7.188;2022-12-16T10:46:35;27.87;;;17.67;;
9940;SDS011;5009;50.656;7.188;2022-12-16T10:50:12;26.27;;;16.70;;
9940;SDS011;5009;50.656;7.188;2022-12-16T10:59:01;25.80;;;16.40;;
9940;SDS011;5009;50.656;7.188;2022-12-16T11:05:42;26.60;;;16.07;;
9940;SDS011;5009;50.656;7.188;2022-12-16T11:09:42;28.40;;;18.20;;
9940;SDS011;5009;50.656;7.188;2022-12-16T11:17:35;29.00;;;18.63;;
9940;SDS011;5009;50.656;7.188;2022-12-16T11:20:21;30.13;;;17.57;;
9940;SDS011;5009;50.656;7.188;2022-12-16T11:23:07;26.50;;;18.20;;
9940;SDS011;5009;50.656;7.188;2022-12-16T11:26:55;26.53;;;18.83;;
9940;SDS011;5009;50.656;7.188;2022-12-16T11:30:16;27.03;;;18.10;;
9940;SDS011;5009;50.656;7.188;2022-12-16T11:32:56;26.53;;;17.07;;
9940;SDS011;5009;50.656;7.188;2022-12-16T11:35:43;26.00;;;17.43;;
9940;SDS011;5009;50.656;7.188;2022-12-16T11:42:09;25.17;;;16.23;;
9940;SDS011;5009;50.656;7.188;2022-12-16T11:46:43;28.47;;;18.70;;
9940;SDS011;5009;50.656;7.188;2022-12-16T11:50:17;27.40;;;17.77;;
9940;SDS011;5009;50.656;7.188;2022-12-16T11:53:02;27.30;;;17.80;;
9940;SDS011;5009;50.656;7.188;2022-12-16T11:55:49;27.37;;;16.93;;
9940;SDS011;5009;50.656;7.188;2022-12-16T11:58:47;25.30;;;16.53;;
9940;SDS011;5009;50.656;7.188;2022-12-16T12:03:26;23.13;;;15.90;;
9940;SDS011;5009;50.656;7.188;2022-12-16T12:09:14;30.17;;;17.50;;
9940;SDS011;5009;50.656;7.188;2022-12-16T12:19:55;22.87;;;16.93;;
9940;SDS011;5009;50.656;7.188;2022-12-16T12:23:01;25.40;;;17.03;;
9940;SDS011;5009;50.656;7.188;2022-12-16T12:43:15;26.73;;;17.37;;
9940;SDS011;5009;50.656;7.188;2022-12-16T12:49:56;23.53;;;16.13;;
9940;SDS011;5009;50.656;7.188;2022-12-16T12:59:26;23.17;;;15.37;;
9940;SDS011;5009;50.656;7.188;2022-12-16T13:02:58;23.87;;;16.77;;
9940;SDS011;5009;50.656;7.188;2022-12-16T13:06:03;23.33;;;15.23;;
9940;SDS011;5009;50.656;7.188;2022-12-16T13:17:21;28.93;;;19.13;;
9940;SDS011;5009;50.656;7.188;2022-12-16T13:24:19;26.47;;;19.27;;
9940;SDS011;5009;50.656;7.188;2022-12-16T13:27:45;26.23;;;18.70;;
9940;SDS011;5009;50.656;7.188;2022-12-16T13:30:35;27.33;;;17.47;;
9940;SDS011;5009;50.656;7.188;2022-12-16T13:33:20;26.70;;;17.90;;
9940;SDS011;5009;50.656;7.188;2022-12-16T13:36:08;24.67;;;17.67;;
9940;SDS011;5009;50.656;7.188;2022-12-16T13:38:54;25.77;;;18.27;;
9940;SDS011;5009;50.656;7.188;2022-12-16T13:48:55;24.57;;;16.90;;
9940;SDS011;5009;50.656;7.188;2022-12-16T13:52:20;27.07;;;18.70;;
9940;SDS011;5009;50.656;7.188;2022-12-16T13:55:56;27.80;;;19.30;;
9940;SDS011;5009;50.656;7.188;2022-12-16T13:58:44;26.73;;;18.73;;
9940;SDS011;5009;50.656;7.188;2022-12-16T14:03:41;27.77;;;18.90;;
9940;SDS011;5009;50.656;7.188;2022-12-16T14:06:29;30.13;;;19.90;;
9940;SDS011;5009;50.656;7.188;2022-12-16T14:09:34;31.53;;;21.37;;
9940;SDS011;5009;50.656;7.188;2022-12-16T14:17:08;33.57;;;23.30;;
9940;SDS011;5009;50.656;7.188;2022-12-16T14:23:01;26.93;;;20.60;;
9940;SDS011;5009;50.656;7.188;2022-12-16T14:26:11;34.87;;;21.03;;
9940;SDS011;5009;50.656;7.188;2022-12-16T14:28:57;31.07;;;23.30;;
9940;SDS011;5009;50.656;7.188;2022-12-16T14:31:54;37.43;;;25.73;;
9940;SDS011;5009;50.656;7.188;2022-12-16T14:34:38;28.67;;;22.37;;
9940;SDS011;5009;50.656;7.188;2022-12-16T14:37:28;28.17;;;21.30;;
9940;SDS011;5009;50.656;7.188;2022-12-16T14:43:12;30.40;;;21.07;;
9940;SDS011;5009;50.656;7.188;2022-12-16T14:49:19;28.50;;;20.07;;
9940;SDS011;5009;50.656;7.188;2022-12-16T14:52:45;27.53;;;18.57;;
9940;SDS011;5009;50.656;7.188;2022-12-16T14:55:33;27.53;;;18.60;;
9940;SDS011;5009;50.656;7.188;2022-12-16T15:03:49;24.77;;;18.13;;
9940;SDS011;5009;50.656;7.188;2022-12-16T15:06:40;24.60;;;18.87;;
9940;SDS011;5009;50.656;7.188;2022-12-16T15:09:40;25.33;;;18.07;;
9940;SDS011;5009;50.656;7.188;2022-12-16T15:12:30;29.60;;;18.97;;
9940;SDS011;5009;50.656;7.188;2022-12-16T15:16:27;29.03;;;19.80;;
9940;SDS011;5009;50.656;7.188;2022-12-16T15:24:35;27.37;;;20.70;;
9940;SDS011;5009;50.656;7.188;2022-12-16T15:28:54;27.73;;;20.40;;
9940;SDS011;5009;50.656;7.188;2022-12-16T15:33:25;27.53;;;19.33;;
9940;SDS011;5009;50.656;7.188;2022-12-16T15:36:33;26.70;;;19.90;;
9940;SDS011;5009;50.656;7.188;2022-12-16T15:40:41;32.17;;;22.20;;
9940;SDS011;5009;50.656;7.188;2022-12-16T15:43:28;37.27;;;23.03;;
9940;SDS011;5009;50.656;7.188;2022-12-16T15:46:19;30.83;;;22.37;;
9940;SDS011;5009;50.656;7.188;2022-12-16T15:54:20;38.67;;;23.67;;
9940;SDS011;5009;50.656;7.188;2022-12-16T16:02:46;38.03;;;25.70;;
9940;SDS011;5009;50.656;7.188;2022-12-16T16:05:31;35.27;;;24.47;;
9940;SDS011;5009;50.656;7.188;2022-12-16T16:08:18;43.27;;;25.67;;
9940;SDS011;5009;50.656;7.188;2022-12-16T16:11:02;38.03;;;24.77;;
9940;SDS011;5009;50.656;7.188;2022-12-16T16:13:46;36.23;;;24.70;;
9940;SDS011;5009;50.656;7.188;2022-12-16T16:16:30;37.93;;;24.27;;
9940;SDS011;5009;50.656;7.188;2022-12-16T16:19:16;39.33;;;24.40;;
9940;SDS011;5009;50.656;7.188;2022-12-16T16:22:46;44.13;;;25.27;;
9940;SDS011;5009;50.656;7.188;2022-12-16T16:25:30;41.67;;;25.27;;
9940;SDS011;5009;50.656;7.188;2022-12-16T16:28:14;39.50;;;24.17;;
9940;SDS011;5009;50.656;7.188;2022-12-16T16:30:58;38.13;;;23.80;;
9940;SDS011;5009;50.656;7.188;2022-12-16T16:33:42;32.93;;;22.03;;
9940;SDS011;5009;50.656;7.188;2022-12-16T16:39:18;33.27;;;21.87;;
9940;SDS011;5009;50.656;7.188;2022-12-16T16:42:46;33.87;;;20.70;;
9940;SDS011;5009;50.656;7.188;2022-12-16T16:45:30;31.50;;;21.37;;
9940;SDS011;5009;50.656;7.188;2022-12-16T16:52:45;33.43;;;20.90;;
9940;SDS011;5009;50.656;7.188;2022-12-16T16:58:33;33.80;;;19.67;;
9940;SDS011;5009;50.656;7.188;2022-12-16T17:03:01;32.37;;;18.57;;
9940;SDS011;5009;50.656;7.188;2022-12-16T17:08:47;30.07;;;20.37;;
9940;SDS011;5009;50.656;7.188;2022-12-16T17:11:31;33.67;;;20.57;;
9940;SDS011;5009;50.656;7.188;2022-12-16T17:14:16;29.83;;;19.07;;
9940;SDS011;5009;50.656;7.188;2022-12-16T17:18:42;33.63;;;21.37;;
9940;SDS011;5009;50.656;7.188;2022-12-16T17:21:26;29.73;;;18.63;;
9940;SDS011;5009;50.656;7.188;2022-12-16T17:24:10;30.60;;;19.80;;
9940;SDS011;5009;50.656;7.188;2022-12-16T17:26:54;31.23;;;20.23;;
9940;SDS011;5009;50.656;7.188;2022-12-16T17:29:38;29.33;;;20.33;;
9940;SDS011;5009;50.656;7.188;2022-12-16T17:34:24;30.87;;;19.40;;
9940;SDS011;5009;50.656;7.188;2022-12-16T17:37:08;31.67;;;20.40;;
9940;SDS011;5009;50.656;7.188;2022-12-16T17:39:52;32.63;;;20.17;;
9940;SDS011;5009;50.656;7.188;2022-12-16T17:42:36;29.90;;;18.83;;
9940;SDS011;5009;50.656;7.188;2022-12-16T17:45:20;30.40;;;19.77;;
9940;SDS011;5009;50.656;7.188;2022-12-16T17:48:04;33.40;;;21.77;;
9940;SDS011;5009;50.656;7.188;2022-12-16T17:50:48;31.83;;;20.93;;
9940;SDS011;5009;50.656;7.188;2022-12-16T17:53:32;35.53;;;21.03;;
9940;SDS011;5009;50.656;7.188;2022-12-16T17:56:17;40.83;;;22.30;;
9940;SDS011;5009;50.656;7.188;2022-12-16T17:59:01;37.97;;;22.47;;
9940;SDS011;5009;50.656;7.188;2022-12-16T18:02:46;37.07;;;21.70;;
9940;SDS011;5009;50.656;7.188;2022-12-16T18:05:30;39.13;;;20.87;;
9940;SDS011;5009;50.656;7.188;2022-12-16T18:09:25;36.83;;;20.63;;
9940;SDS011;5009;50.656;7.188;2022-12-16T18:12:09;39.83;;;21.37;;
9940;SDS011;5009;50.656;7.188;2022-12-16T18:14:53;37.73;;;20.47;;
9940;SDS011;5009;50.656;7.188;2022-12-16T18:17:37;48.07;;;24.50;;
9940;SDS011;5009;50.656;7.188;2022-12-16T18:20:21;41.60;;;24.07;;
9940;SDS011;5009;50.656;7.188;2022-12-16T18:23:05;35.90;;;21.93;;
9940;SDS011;5009;50.656;7.188;2022-12-16T18:25:59;43.77;;;25.33;;
9940;SDS011;5009;50.656;7.188;2022-12-16T18:28:47;43.67;;;24.10;;
9940;SDS011;5009;50.656;7.188;2022-12-16T18:31:32;40.77;;;21.43;;
9940;SDS011;5009;50.656;7.188;2022-12-16T18:34:16;37.87;;;20.50;;
9940;SDS011;5009;50.656;7.188;2022-12-16T18:37:00;40.97;;;22.23;;
9940;SDS011;5009;50.656;7.188;2022-12-16T18:39:45;40.60;;;21.23;;
9940;SDS011;5009;50.656;7.188;2022-12-16T18:42:29;37.40;;;20.87;;
9940;SDS011;5009;50.656;7.188;2022-12-16T18:45:13;39.80;;;22.37;;
9940;SDS011;5009;50.656;7.188;2022-12-16T18:47:57;40.53;;;22.47;;
9940;SDS011;5009;50.656;7.188;2022-12-16T18:50:41;42.60;;;21.87;;
9940;SDS011;5009;50.656;7.188;2022-12-16T18:53:25;45.27;;;22.20;;
9940;SDS011;5009;50.656;7.188;2022-12-16T18:56:09;41.40;;;21.80;;
9940;SDS011;5009;50.656;7.188;2022-12-16T18:58:49;42.73;;;23.07;;
9940;SDS011;5009;50.656;7.188;2022-12-16T19:01:33;42.43;;;23.93;;
9940;SDS011;5009;50.656;7.188;2022-12-16T19:04:17;39.87;;;21.63;;
9940;SDS011;5009;50.656;7.188;2022-12-16T19:07:01;43.27;;;22.57;;
9940;SDS011;5009;50.656;7.188;2022-12-16T19:09:46;47.13;;;23.70;;
9940;SDS011;5009;50.656;7.188;2022-12-16T19:12:30;40.47;;;23.33;;
9940;SDS011;5009;50.656;7.188;2022-12-16T19:15:14;44.93;;;22.80;;
9940;SDS011;5009;50.656;7.188;2022-12-16T19:17:58;38.40;;;21.63;;
9940;SDS011;5009;50.656;7.188;2022-12-16T19:20:42;41.87;;;23.30;;
9940;SDS011;5009;50.656;7.188;2022-12-16T19:23:26;48.93;;;25.13;;
9940;SDS011;5009;50.656;7.188;2022-12-16T19:26:10;41.67;;;24.73;;
9940;SDS011;5009;50.656;7.188;2022-12-16T19:28:55;44.73;;;24.57;;
9940;SDS011;5009;50.656;7.188;2022-12-16T19:31:39;45.27;;;23.37;;
9940;SDS011;5009;50.656;7.188;2022-12-16T19:34:23;40.27;;;22.70;;
9940;SDS011;5009;50.656;7.188;2022-12-16T19:37:07;36.93;;;21.93;;
9940;SDS011;5009;50.656;7.188;2022-12-16T19:39:51;38.57;;;20.50;;
9940;SDS011;5009;50.656;7.188;2022-12-16T19:42:35;39.10;;;21.17;;
9940;SDS011;5009;50.656;7.188;2022-12-16T19:45:19;38.73;;;20.77;;
9940;SDS011;5009;50.656;7.188;2022-12-16T19:48:03;39.00;;;21.00;;
9940;SDS011;5009;50.656;7.188;2022-12-16T19:52:47;37.90;;;19.13;;
9940;SDS011;5009;50.656;7.188;2022-12-16T19:55:31;37.80;;;19.27;;
9940;SDS011;5009;50.656;7.188;2022-12-16T19:59:35;40.17;;;22.07;;
9940;SDS011;5009;50.656;7.188;2022-12-16T20:02:47;42.30;;;21.50;;
9940;SDS011;5009;50.656;7.188;2022-12-16T20:05:31;38.93;;;20.23;;
9940;SDS011;5009;50.656;7.188;2022-12-16T20:08:15;37.37;;;21.17;;
9940;SDS011;5009;50.656;7.188;2022-12-16T20:11:03;37.50;;;20.93;;
9940;SDS011;5009;50.656;7.188;2022-12-16T20:13:50;38.50;;;21.43;;
9940;SDS011;5009;50.656;7.188;2022-12-16T20:16:35;36.77;;;20.50;;
9940;SDS011;5009;50.656;7.188;2022-12-16T20:19:20;37.17;;;20.90;;
9940;SDS011;5009;50.656;7.188;2022-12-16T20:22:04;42.23;;;21.33;;
9940;SDS011;5009;50.656;7.188;2022-12-16T20:24:48;39.03;;;22.10;;
9940;SDS011;5009;50.656;7.188;2022-12-16T20:27:32;38.10;;;20.23;;
9940;SDS011;5009;50.656;7.188;2022-12-16T20:30:16;35.03;;;20.33;;
9940;SDS011;5009;50.656;7.188;2022-12-16T20:33:00;33.53;;;20.87;;
9940;SDS011;5009;50.656;7.188;2022-12-16T20:35:53;36.43;;;20.80;;
9940;SDS011;5009;50.656;7.188;2022-12-16T20:38:38;37.37;;;20.13;;
9940;SDS011;5009;50.656;7.188;2022-12-16T20:42:47;33.37;;;19.63;;
9940;SDS011;5009;50.656;7.188;2022-12-16T20:45:31;34.17;;;19.70;;
9940;SDS011;5009;50.656;7.188;2022-12-16T20:48:15;37.67;;;21.47;;
9940;SDS011;5009;50.656;7.188;2022-12-16T20:51:00;36.83;;;21.37;;
9940;SDS011;5009;50.656;7.188;2022-12-16T20:53:46;34.80;;;20.50;;
9940;SDS011;5009;50.656;7.188;2022-12-16T20:56:31;36.57;;;21.37;;
9940;SDS011;5009;50.656;7.188;2022-12-16T20:59:16;40.77;;;21.83;;
9940;SDS011;5009;50.656;7.188;2022-12-16T21:02:00;38.80;;;22.33;;
9940;SDS011;5009;50.656;7.188;2022-12-16T21:04:44;36.73;;;21.00;;
9940;SDS011;5009;50.656;7.188;2022-12-16T21:07:28;36.30;;;21.53;;
9940;SDS011;5009;50.656;7.188;2022-12-16T21:10:12;39.37;;;21.53;;
9940;SDS011;5009;50.656;7.188;2022-12-16T21:13:03;38.37;;;21.73;;
9940;SDS011;5009;50.656;7.188;2022-12-16T21:15:51;37.57;;;21.57;;
9940;SDS011;5009;50.656;7.188;2022-12-16T21:18:52;39.60;;;21.57;;
9940;SDS011;5009;50.656;7.188;2022-12-16T21:21:36;34.33;;;20.60;;
9940;SDS011;5009;50.656;7.188;2022-12-16T21:24:28;35.43;;;21.00;;
9940;SDS011;5009;50.656;7.188;2022-12-16T21:27:12;40.40;;;20.87;;
9940;SDS011;5009;50.656;7.188;2022-12-16T21:29:56;35.67;;;20.90;;
9940;SDS011;5009;50.656;7.188;2022-12-16T21:32:40;38.27;;;21.50;;
9940;SDS011;5009;50.656;7.188;2022-12-16T21:35:24;37.87;;;19.93;;
9940;SDS011;5009;50.656;7.188;2022-12-16T21:38:09;38.90;;;20.60;;
9940;SDS011;5009;50.656;7.188;2022-12-16T21:43:32;35.20;;;19.87;;
9940;SDS011;5009;50.656;7.188;2022-12-16T21:46:16;34.83;;;18.77;;
9940;SDS011;5009;50.656;7.188;2022-12-16T21:49:00;33.47;;;19.23;;
9940;SDS011;5009;50.656;7.188;2022-12-16T21:51:44;35.63;;;20.60;;
9940;SDS011;5009;50.656;7.188;2022-12-16T21:54:28;36.77;;;20.20;;
9940;SDS011;5009;50.656;7.188;2022-12-16T21:57:12;34.80;;;19.10;;
